Time;durP1;ratioP1;P1;durP2;ratioP2;P2;SDS_P1;SDS_P2;PMS_P1;PMS_P2;Temp;Humidity;BMP_temperature;BMP_pressure;BME280_temperature;BME280_humidity;BME280_pressure;Samples;Min_cycle;Max_cycle;Signal;HPM_P1;HPM_P2
2021/12/24 00:00:45;;;;;;;0.40;0.40;;;;;;;;;;4973253;28;20179;-61
2021/12/24 00:03:12;;;;;;;0.40;0.40;;;;;;;;;;4973817;28;20423;-61
2021/12/24 00:05:38;;;;;;;0.40;0.40;;;;;;;;;;4973745;28;20434;-61
2021/12/24 00:08:04;;;;;;;0.40;0.40;;;;;;;;;;4973773;28;20229;-61
2021/12/24 00:10:32;;;;;;;0.40;0.40;;;;;;;;;;4972998;28;20584;-61
2021/12/24 00:13:02;;;;;;;0.40;0.40;;;;;;;;;;4973606;28;20658;-61
2021/12/24 00:18:25;;;;;;;0.40;0.40;;;;;;;;;;4975331;28;20566;-61
2021/12/24 00:37:03;;;;;;;0.50;0.50;;;;;;;;;;4973298;28;20234;-61
2021/12/24 00:39:30;;;;;;;0.40;0.40;;;;;;;;;;4973439;28;20233;-61
2021/12/24 00:41:55;;;;;;;0.40;0.40;;;;;;;;;;4972444;28;20182;-61
2021/12/24 00:44:21;;;;;;;0.47;0.47;;;;;;;;;;4973296;28;20178;-61
2021/12/24 00:46:47;;;;;;;0.40;0.40;;;;;;;;;;4973105;28;20430;-60
2021/12/24 00:49:13;;;;;;;0.50;0.50;;;;;;;;;;4973060;28;20456;-61
2021/12/24 00:57:08;;;;;;;0.40;0.40;;;;;;;;;;4973222;28;20234;-60
2021/12/24 00:59:37;;;;;;;0.50;0.50;;;;;;;;;;4973119;28;20171;-60
2021/12/24 01:02:04;;;;;;;0.40;0.40;;;;;;;;;;4972253;28;20416;-61
2021/12/24 01:04:30;;;;;;;0.40;0.40;;;;;;;;;;4972974;28;20258;-61
2021/12/24 01:06:56;;;;;;;0.40;0.40;;;;;;;;;;4972613;28;20305;-61
2021/12/24 01:09:22;;;;;;;0.40;0.40;;;;;;;;;;4972962;28;20257;-61
2021/12/24 01:11:48;;;;;;;0.40;0.40;;;;;;;;;;4971130;28;20411;-61
2021/12/24 01:14:14;;;;;;;0.40;0.40;;;;;;;;;;4972827;28;20399;-61
2021/12/24 01:16:49;;;;;;;0.50;0.50;;;;;;;;;;4972855;28;20235;-62
2021/12/24 01:19:20;;;;;;;0.40;0.40;;;;;;;;;;4972950;28;20406;-60
2021/12/24 01:24:39;;;;;;;0.40;0.40;;;;;;;;;;4973192;28;20182;-61
2021/12/24 01:27:22;;;;;;;0.40;0.40;;;;;;;;;;4972647;28;20190;-61
2021/12/24 01:38:11;;;;;;;0.40;0.40;;;;;;;;;;4972823;28;20593;-61
2021/12/24 01:40:51;;;;;;;0.40;0.40;;;;;;;;;;4972121;28;20609;-61
2021/12/24 01:43:17;;;;;;;0.40;0.40;;;;;;;;;;4974754;28;20187;-61
2021/12/24 01:45:46;;;;;;;0.40;0.40;;;;;;;;;;4976288;28;20231;-61
2021/12/24 01:48:12;;;;;;;0.50;0.50;;;;;;;;;;4976259;28;20224;-61
2021/12/24 01:50:42;;;;;;;0.40;0.40;;;;;;;;;;4975502;28;20183;-61
2021/12/24 01:53:08;;;;;;;0.40;0.40;;;;;;;;;;4976033;28;20240;-61
2021/12/24 01:55:34;;;;;;;0.40;0.40;;;;;;;;;;4976145;28;20187;-61
2021/12/24 01:58:00;;;;;;;0.40;0.40;;;;;;;;;;4975989;28;20199;-61
2021/12/24 02:00:31;;;;;;;0.40;0.40;;;;;;;;;;4975383;28;20206;-60
2021/12/24 02:02:57;;;;;;;0.40;0.40;;;;;;;;;;4976002;28;20441;-60
2021/12/24 02:05:24;;;;;;;0.40;0.40;;;;;;;;;;4976017;28;20179;-61
2021/12/24 02:07:50;;;;;;;0.40;0.40;;;;;;;;;;5014098;22;20314;-61
2021/12/24 02:10:17;;;;;;;0.40;0.40;;;;;;;;;;4994368;28;20185;-61
2021/12/24 02:12:43;;;;;;;0.43;0.43;;;;;;;;;;4994640;28;20178;-60
2021/12/24 02:15:16;;;;;;;0.40;0.40;;;;;;;;;;4995194;28;20166;-61
2021/12/24 02:17:59;;;;;;;0.40;0.40;;;;;;;;;;4995175;28;20218;-59
2021/12/24 02:28:40;;;;;;;0.50;0.50;;;;;;;;;;4994982;28;20209;-60
2021/12/24 02:31:08;;;;;;;0.40;0.40;;;;;;;;;;4994616;28;20544;-61
2021/12/24 02:33:34;;;;;;;0.50;0.50;;;;;;;;;;4994131;28;20175;-59
2021/12/24 02:36:00;;;;;;;0.40;0.40;;;;;;;;;;4994637;28;20181;-59
2021/12/24 02:38:26;;;;;;;0.40;0.40;;;;;;;;;;4994618;28;20201;-61
2021/12/24 02:40:52;;;;;;;0.40;0.40;;;;;;;;;;4992346;28;20182;-61
2021/12/24 02:43:21;;;;;;;0.40;0.40;;;;;;;;;;4994105;28;20417;-59
2021/12/24 02:45:49;;;;;;;0.40;0.40;;;;;;;;;;4994598;28;20796;-59
2021/12/24 02:48:55;;;;;;;0.40;0.40;;;;;;;;;;4993815;28;20613;-61
2021/12/24 02:53:58;;;;;;;0.40;0.40;;;;;;;;;;4993667;28;20269;-61
2021/12/24 02:56:28;;;;;;;0.40;0.40;;;;;;;;;;4994265;28;20193;-60
2021/12/24 02:58:54;;;;;;;0.40;0.40;;;;;;;;;;4994322;28;20182;-59
2021/12/24 03:01:21;;;;;;;0.40;0.40;;;;;;;;;;4993579;28;20646;-60
2021/12/24 03:03:48;;;;;;;0.50;0.50;;;;;;;;;;4994355;28;20281;-59
2021/12/24 03:06:15;;;;;;;0.40;0.40;;;;;;;;;;4994086;28;20198;-60
2021/12/24 03:08:41;;;;;;;0.40;0.40;;;;;;;;;;4994250;28;20210;-60
2021/12/24 03:11:07;;;;;;;0.40;0.40;;;;;;;;;;4993615;28;20178;-60
2021/12/24 03:13:35;;;;;;;0.40;0.40;;;;;;;;;;4994414;28;20784;-61
2021/12/24 03:16:01;;;;;;;0.40;0.40;;;;;;;;;;4994078;28;20209;-60
2021/12/24 03:18:30;;;;;;;0.40;0.40;;;;;;;;;;4994140;28;20221;-60
2021/12/24 03:21:06;;;;;;;0.40;0.40;;;;;;;;;;4993551;28;20754;-61
2021/12/24 03:23:45;;;;;;;0.40;0.40;;;;;;;;;;4994010;28;20178;-59
2021/12/24 03:26:13;;;;;;;0.30;0.30;;;;;;;;;;4993960;28;20653;-61
2021/12/24 03:28:39;;;;;;;0.40;0.40;;;;;;;;;;4994132;28;20253;-61
2021/12/24 03:31:06;;;;;;;0.40;0.40;;;;;;;;;;4993267;28;20175;-61
2021/12/24 03:33:33;;;;;;;0.40;0.40;;;;;;;;;;4993856;28;20527;-60
2021/12/24 03:36:00;;;;;;;0.50;0.50;;;;;;;;;;4993688;28;20163;-57
2021/12/24 03:38:26;;;;;;;0.40;0.40;;;;;;;;;;4993564;28;20182;-60
2021/12/24 03:40:52;;;;;;;0.40;0.40;;;;;;;;;;4993112;28;20578;-61
2021/12/24 03:43:18;;;;;;;0.40;0.40;;;;;;;;;;4993711;28;20476;-58
2021/12/24 03:46:06;;;;;;;0.40;0.40;;;;;;;;;;4992285;28;20508;-61
2021/12/24 03:51:36;;;;;;;0.40;0.40;;;;;;;;;;4992056;28;20182;-61
2021/12/24 03:56:37;;;;;;;0.50;0.50;;;;;;;;;;4993589;28;20232;-61
2021/12/24 03:59:04;;;;;;;0.40;0.40;;;;;;;;;;4993220;28;20206;-61
2021/12/24 04:01:30;;;;;;;0.40;0.40;;;;;;;;;;4992671;28;20178;-61
2021/12/24 04:03:56;;;;;;;0.40;0.40;;;;;;;;;;4993238;28;20206;-61
2021/12/24 04:06:22;;;;;;;0.50;0.50;;;;;;;;;;4992834;28;20563;-61
2021/12/24 04:08:48;;;;;;;0.40;0.40;;;;;;;;;;4993121;28;20252;-60
2021/12/24 04:11:14;;;;;;;0.50;0.50;;;;;;;;;;4992505;28;20177;-61
2021/12/24 04:13:40;;;;;;;0.50;0.50;;;;;;;;;;4992839;28;20405;-59
2021/12/24 04:16:06;;;;;;;0.40;0.40;;;;;;;;;;4992936;28;20202;-59
2021/12/24 04:26:35;;;;;;;0.40;0.40;;;;;;;;;;4992870;28;20237;-60
2021/12/24 04:29:01;;;;;;;0.50;0.50;;;;;;;;;;4992698;28;20573;-60
2021/12/24 04:34:05;;;;;;;0.40;0.40;;;;;;;;;;4992855;28;20504;-58
2021/12/24 04:39:43;;;;;;;0.40;0.40;;;;;;;;;;4992730;28;20183;-60
2021/12/24 05:01:26;;;;;;;0.40;0.40;;;;;;;;;;4991467;28;20745;-60
2021/12/24 05:03:52;;;;;;;0.40;0.40;;;;;;;;;;4992069;28;20273;-60
2021/12/24 05:08:54;;;;;;;0.40;0.40;;;;;;;;;;4992158;28;20230;-59
2021/12/24 05:11:20;;;;;;;0.40;0.40;;;;;;;;;;4990528;28;20217;-60
2021/12/24 05:13:47;;;;;;;0.40;0.40;;;;;;;;;;4991641;28;20258;-60
2021/12/24 05:21:35;;;;;;;0.40;0.40;;;;;;;;;;4995694;28;20186;-60
2021/12/24 05:24:07;;;;;;;0.40;0.40;;;;;;;;;;4996125;28;20241;-60
2021/12/24 05:26:34;;;;;;;0.40;0.40;;;;;;;;;;4996149;28;20205;-60
2021/12/24 05:29:00;;;;;;;0.40;0.40;;;;;;;;;;4996132;28;20292;-60
2021/12/24 05:31:27;;;;;;;0.40;0.40;;;;;;;;;;4995194;28;20209;-58
2021/12/24 05:33:53;;;;;;;0.40;0.40;;;;;;;;;;4996070;28;20672;-59
2021/12/24 05:36:19;;;;;;;0.40;0.40;;;;;;;;;;4995861;28;20190;-60
2021/12/24 05:38:46;;;;;;;0.40;0.40;;;;;;;;;;4995848;28;20409;-60
2021/12/24 05:41:14;;;;;;;0.40;0.40;;;;;;;;;;4995055;28;20409;-60
2021/12/24 05:43:41;;;;;;;0.40;0.40;;;;;;;;;;4995999;28;20257;-60
2021/12/24 05:46:07;;;;;;;0.40;0.40;;;;;;;;;;4995664;28;20175;-60
2021/12/24 05:48:33;;;;;;;0.40;0.40;;;;;;;;;;4995558;28;20574;-58
2021/12/24 05:50:59;;;;;;;0.40;0.40;;;;;;;;;;4994060;28;20174;-59
2021/12/24 05:53:26;;;;;;;0.40;0.40;;;;;;;;;;4995628;28;20398;-60
2021/12/24 05:55:52;;;;;;;0.40;0.40;;;;;;;;;;4995570;28;20754;-57
2021/12/24 05:58:18;;;;;;;0.40;0.40;;;;;;;;;;4995476;28;20205;-61
2021/12/24 06:00:46;;;;;;;0.40;0.40;;;;;;;;;;4995034;28;20183;-60
2021/12/24 06:03:12;;;;;;;0.50;0.50;;;;;;;;;;4995378;28;20613;-61
2021/12/24 06:05:38;;;;;;;0.40;0.40;;;;;;;;;;4994153;28;20225;-61
2021/12/24 06:08:05;;;;;;;0.45;0.45;;;;;;;;;;4996530;28;20476;-61
2021/12/24 06:10:32;;;;;;;0.40;0.40;;;;;;;;;;4996479;28;20170;-59
2021/12/24 06:12:58;;;;;;;0.40;0.40;;;;;;;;;;4995825;28;20298;-57
2021/12/24 06:15:26;;;;;;;0.40;0.40;;;;;;;;;;4995380;28;20181;-59
2021/12/24 06:17:54;;;;;;;0.40;0.40;;;;;;;;;;4995124;28;20190;-59
2021/12/24 06:20:21;;;;;;;0.40;0.40;;;;;;;;;;4994569;28;20705;-59
2021/12/24 06:22:49;;;;;;;0.40;0.40;;;;;;;;;;4995193;28;20179;-59
2021/12/24 06:25:17;;;;;;;0.50;0.50;;;;;;;;;;4995095;28;20580;-59
2021/12/24 06:27:43;;;;;;;0.50;0.50;;;;;;;;;;4994791;28;20199;-58
2021/12/24 06:30:09;;;;;;;0.40;0.40;;;;;;;;;;4993108;28;20205;-59
2021/12/24 06:32:35;;;;;;;0.50;0.50;;;;;;;;;;4994864;28;20173;-60
2021/12/24 06:35:01;;;;;;;0.40;0.40;;;;;;;;;;4995108;28;20171;-58
2021/12/24 06:37:27;;;;;;;0.40;0.40;;;;;;;;;;4994746;28;20433;-59
2021/12/24 06:39:55;;;;;;;0.40;0.40;;;;;;;;;;4993493;28;20664;-60
2021/12/24 06:42:21;;;;;;;0.40;0.40;;;;;;;;;;4994051;28;20171;-58
2021/12/24 06:44:47;;;;;;;0.50;0.50;;;;;;;;;;4994679;28;20189;-60
2021/12/24 06:47:13;;;;;;;0.40;0.40;;;;;;;;;;4994482;28;20443;-58
2021/12/24 06:49:39;;;;;;;0.40;0.40;;;;;;;;;;4994826;28;20436;-58
2021/12/24 06:52:05;;;;;;;0.40;0.40;;;;;;;;;;4994001;28;20445;-60
2021/12/24 06:54:33;;;;;;;0.50;0.50;;;;;;;;;;4994511;28;20401;-60
2021/12/24 06:56:59;;;;;;;0.40;0.40;;;;;;;;;;4994322;28;20186;-60
2021/12/24 06:59:25;;;;;;;0.40;0.40;;;;;;;;;;4994433;28;20285;-60
2021/12/24 07:01:51;;;;;;;0.40;0.40;;;;;;;;;;4994116;28;20276;-60
2021/12/24 07:04:17;;;;;;;0.40;0.40;;;;;;;;;;4994433;28;20773;-60
2021/12/24 07:06:45;;;;;;;0.40;0.40;;;;;;;;;;4994070;28;20221;-61
2021/12/24 07:09:15;;;;;;;0.40;0.40;;;;;;;;;;4994170;28;20202;-60
2021/12/24 07:11:42;;;;;;;0.40;0.40;;;;;;;;;;4993551;28;20202;-59
2021/12/24 07:14:08;;;;;;;0.40;0.40;;;;;;;;;;4994756;28;20208;-58
2021/12/24 07:16:34;;;;;;;0.40;0.40;;;;;;;;;;4994092;28;20194;-61
2021/12/24 07:19:00;;;;;;;0.40;0.40;;;;;;;;;;4994388;28;20877;-61
2021/12/24 07:21:26;;;;;;;0.40;0.40;;;;;;;;;;4993533;28;20268;-60
2021/12/24 07:23:52;;;;;;;0.40;0.40;;;;;;;;;;4993976;28;20449;-60
2021/12/24 07:26:18;;;;;;;0.40;0.40;;;;;;;;;;4993791;28;20434;-60
2021/12/24 07:28:44;;;;;;;0.40;0.40;;;;;;;;;;4990202;28;21008;-60
2021/12/24 07:31:10;;;;;;;0.40;0.40;;;;;;;;;;4993260;28;20402;-60
2021/12/24 07:33:36;;;;;;;0.40;0.40;;;;;;;;;;4992158;28;20684;-59
2021/12/24 07:36:01;;;;;;;0.40;0.40;;;;;;;;;;4993742;28;20537;-59
2021/12/24 07:38:27;;;;;;;0.40;0.40;;;;;;;;;;4993667;28;20198;-59
2021/12/24 07:40:53;;;;;;;0.40;0.40;;;;;;;;;;4992571;28;20850;-59
2021/12/24 07:43:19;;;;;;;0.40;0.40;;;;;;;;;;4992413;28;20405;-57
2021/12/24 07:45:47;;;;;;;0.50;0.50;;;;;;;;;;4993119;28;20233;-60
2021/12/24 07:48:15;;;;;;;0.40;0.40;;;;;;;;;;4991366;28;20470;-59
2021/12/24 07:53:09;;;;;;;0.40;0.40;;;;;;;;;;4993831;28;20646;-60
2021/12/24 07:55:37;;;;;;;0.40;0.40;;;;;;;;;;4991856;28;20265;-61
2021/12/24 07:58:04;;;;;;;0.40;0.40;;;;;;;;;;4992917;28;20213;-59
2021/12/24 08:00:30;;;;;;;0.40;0.40;;;;;;;;;;4992577;28;20673;-56
2021/12/24 08:02:56;;;;;;;0.40;0.40;;;;;;;;;;4993127;28;20741;-59
2021/12/24 08:05:25;;;;;;;0.40;0.40;;;;;;;;;;4992316;28;20543;-60
2021/12/24 08:07:51;;;;;;;0.40;0.40;;;;;;;;;;5036253;23;20235;-59
2021/12/24 08:10:18;;;;;;;0.40;0.40;;;;;;;;;;5010088;28;20255;-58
2021/12/24 08:12:43;;;;;;;0.40;0.40;;;;;;;;;;5011366;28;20174;-59
2021/12/24 08:15:10;;;;;;;0.40;0.40;;;;;;;;;;5012708;28;20223;-60
2021/12/24 08:17:36;;;;;;;0.40;0.40;;;;;;;;;;5002781;28;20780;-59
2021/12/24 08:20:03;;;;;;;0.40;0.40;;;;;;;;;;4991342;28;20246;-59
2021/12/24 08:22:29;;;;;;;0.40;0.40;;;;;;;;;;4992657;28;20186;-58
2021/12/24 08:24:55;;;;;;;0.40;0.40;;;;;;;;;;4992898;28;20213;-60
2021/12/24 08:27:21;;;;;;;0.40;0.40;;;;;;;;;;4992547;28;20516;-59
2021/12/24 08:29:47;;;;;;;0.40;0.40;;;;;;;;;;4992732;28;20170;-58
2021/12/24 08:32:16;;;;;;;0.40;0.40;;;;;;;;;;4992486;28;20185;-58
2021/12/24 08:34:43;;;;;;;0.40;0.40;;;;;;;;;;4997427;28;20201;-59
2021/12/24 08:37:09;;;;;;;0.40;0.40;;;;;;;;;;4984256;28;20201;-58
2021/12/24 08:39:35;;;;;;;0.40;0.40;;;;;;;;;;4994431;28;20185;-58
2021/12/24 08:42:01;;;;;;;0.40;0.40;;;;;;;;;;5005617;28;20645;-60
2021/12/24 08:44:29;;;;;;;0.40;0.40;;;;;;;;;;4997983;28;20178;-61
2021/12/24 08:46:56;;;;;;;0.50;0.50;;;;;;;;;;4992287;28;20426;-61
2021/12/24 08:49:26;;;;;;;0.50;0.50;;;;;;;;;;4992784;28;20233;-59
2021/12/24 08:51:52;;;;;;;0.40;0.40;;;;;;;;;;4995912;28;20417;-61
2021/12/24 08:54:19;;;;;;;0.40;0.40;;;;;;;;;;4992230;28;20261;-61
2021/12/24 08:56:45;;;;;;;0.40;0.40;;;;;;;;;;4992182;28;20216;-56
2021/12/24 08:59:11;;;;;;;0.40;0.40;;;;;;;;;;4998179;28;20182;-61
2021/12/24 09:01:37;;;;;;;0.40;0.40;;;;;;;;;;4991476;28;20243;-61
2021/12/24 09:04:03;;;;;;;0.40;0.40;;;;;;;;;;4990699;28;20968;-57
2021/12/24 09:06:29;;;;;;;0.40;0.40;;;;;;;;;;4992151;28;20185;-60
2021/12/24 09:08:54;;;;;;;0.40;0.40;;;;;;;;;;4992023;28;20864;-61
2021/12/24 09:11:20;;;;;;;0.40;0.40;;;;;;;;;;4991244;28;20755;-61
2021/12/24 09:13:46;;;;;;;0.40;0.40;;;;;;;;;;4991860;28;20959;-61
2021/12/24 09:16:12;;;;;;;0.40;0.40;;;;;;;;;;4991927;28;20410;-57
2021/12/24 09:18:41;;;;;;;0.40;0.40;;;;;;;;;;4991754;28;20206;-60
2021/12/24 09:21:14;;;;;;;0.40;0.40;;;;;;;;;;4991576;28;20192;-59
2021/12/24 09:23:42;;;;;;;0.40;0.40;;;;;;;;;;4991762;28;20203;-59
2021/12/24 09:26:08;;;;;;;0.40;0.40;;;;;;;;;;4991850;28;20174;-60
2021/12/24 09:28:34;;;;;;;0.40;0.40;;;;;;;;;;4991918;28;20264;-59
2021/12/24 09:31:00;;;;;;;0.40;0.40;;;;;;;;;;4991403;28;20177;-57
2021/12/24 09:33:26;;;;;;;0.40;0.40;;;;;;;;;;4990826;28;20409;-61
2021/12/24 09:35:52;;;;;;;0.40;0.40;;;;;;;;;;4998051;28;20610;-61
2021/12/24 09:38:18;;;;;;;0.40;0.40;;;;;;;;;;4991767;28;20517;-60
2021/12/24 09:40:44;;;;;;;0.40;0.40;;;;;;;;;;4991697;28;20265;-61
2021/12/24 09:43:10;;;;;;;0.40;0.40;;;;;;;;;;4990040;28;20429;-61
2021/12/24 09:45:36;;;;;;;0.40;0.40;;;;;;;;;;4991431;28;20484;-61
2021/12/24 09:48:02;;;;;;;0.40;0.40;;;;;;;;;;4991767;28;20465;-62
2021/12/24 09:50:29;;;;;;;0.40;0.40;;;;;;;;;;4991331;28;20785;-61
2021/12/24 09:52:55;;;;;;;0.40;0.40;;;;;;;;;;4991849;28;20174;-61
2021/12/24 09:55:22;;;;;;;0.40;0.40;;;;;;;;;;4991945;28;20212;-61
2021/12/24 09:57:49;;;;;;;0.40;0.40;;;;;;;;;;4991744;28;20193;-61
2021/12/24 10:00:17;;;;;;;0.40;0.40;;;;;;;;;;4991188;28;20237;-61
2021/12/24 10:02:46;;;;;;;0.40;0.40;;;;;;;;;;4988804;28;20190;-62
2021/12/24 10:05:30;;;;;;;0.40;0.40;;;;;;;;;;4985370;28;20175;-61
2021/12/24 10:08:04;;;;;;;0.40;0.40;;;;;;;;;;4993419;28;20250;-61
2021/12/24 10:10:31;;;;;;;0.40;0.40;;;;;;;;;;4992746;28;20185;-61
2021/12/24 10:13:17;;;;;;;0.40;0.40;;;;;;;;;;4994435;28;20206;-62
2021/12/24 10:16:17;;;;;;;0.40;0.40;;;;;;;;;;4992549;28;20461;-61
2021/12/24 10:18:43;;;;;;;0.50;0.50;;;;;;;;;;4993161;28;20209;-61
2021/12/24 10:21:11;;;;;;;0.40;0.40;;;;;;;;;;4992758;28;20566;-61
2021/12/24 10:23:38;;;;;;;0.40;0.40;;;;;;;;;;4993839;28;20424;-60
2021/12/24 10:26:13;;;;;;;0.40;0.40;;;;;;;;;;4994079;28;20229;-61
2021/12/24 10:28:39;;;;;;;0.40;0.40;;;;;;;;;;4993579;28;20205;-61
2021/12/24 10:31:05;;;;;;;0.40;0.40;;;;;;;;;;4992215;28;20178;-59
2021/12/24 10:33:31;;;;;;;0.40;0.40;;;;;;;;;;4991218;28;20182;-61
2021/12/24 10:36:03;;;;;;;0.40;0.40;;;;;;;;;;4994125;28;20425;-60
2021/12/24 10:38:29;;;;;;;0.30;0.30;;;;;;;;;;4994326;28;20520;-60
2021/12/24 10:40:59;;;;;;;0.40;0.40;;;;;;;;;;4994197;28;20557;-61
2021/12/24 10:43:43;;;;;;;0.40;0.40;;;;;;;;;;4994898;28;21033;-61
2021/12/24 10:46:17;;;;;;;0.40;0.40;;;;;;;;;;4993269;28;20252;-59
2021/12/24 10:49:02;;;;;;;0.40;0.40;;;;;;;;;;4994209;28;20256;-61
2021/12/24 10:54:12;;;;;;;0.40;0.40;;;;;;;;;;4994796;28;20216;-59
2021/12/24 10:56:38;;;;;;;0.40;0.40;;;;;;;;;;4994474;28;20206;-61
2021/12/24 10:59:05;;;;;;;0.40;0.40;;;;;;;;;;4994010;28;20425;-61
2021/12/24 11:01:31;;;;;;;0.40;0.40;;;;;;;;;;4993670;28;20182;-61
2021/12/24 11:03:57;;;;;;;0.40;0.40;;;;;;;;;;4994042;28;20653;-60
2021/12/24 11:06:29;;;;;;;0.40;0.40;;;;;;;;;;4994440;28;20185;-61
2021/12/24 11:08:56;;;;;;;0.50;0.50;;;;;;;;;;4989774;28;20473;-61
2021/12/24 11:11:22;;;;;;;0.40;0.40;;;;;;;;;;4992855;28;20170;-60
2021/12/24 11:13:48;;;;;;;0.40;0.40;;;;;;;;;;4994136;28;20177;-61
2021/12/24 11:16:18;;;;;;;0.40;0.40;;;;;;;;;;4993508;28;20673;-61
2021/12/24 11:18:46;;;;;;;0.40;0.40;;;;;;;;;;4993155;28;20206;-61
2021/12/24 11:21:18;;;;;;;0.40;0.40;;;;;;;;;;4990891;28;20589;-61
2021/12/24 11:23:44;;;;;;;0.40;0.40;;;;;;;;;;4991779;28;20639;-61
2021/12/24 11:26:20;;;;;;;0.40;0.40;;;;;;;;;;4992097;28;20205;-61
2021/12/24 11:28:47;;;;;;;0.50;0.50;;;;;;;;;;4988796;28;20206;-61
2021/12/24 11:31:15;;;;;;;0.40;0.40;;;;;;;;;;4991842;28;20260;-61
2021/12/24 11:33:43;;;;;;;0.40;0.40;;;;;;;;;;4991613;28;20490;-61
2021/12/24 11:36:10;;;;;;;0.40;0.40;;;;;;;;;;4992894;28;20785;-61
2021/12/24 11:38:38;;;;;;;0.40;0.40;;;;;;;;;;4991111;28;20757;-61
2021/12/24 11:41:06;;;;;;;0.40;0.40;;;;;;;;;;4990391;28;20685;-60
2021/12/24 11:43:34;;;;;;;0.47;0.47;;;;;;;;;;4985422;28;20182;-60
2021/12/24 11:46:02;;;;;;;0.50;0.50;;;;;;;;;;4993284;28;20183;-61
2021/12/24 11:48:31;;;;;;;0.40;0.40;;;;;;;;;;4992663;28;20248;-61
2021/12/24 11:50:58;;;;;;;0.40;0.40;;;;;;;;;;4992551;28;20181;-61
2021/12/24 11:53:25;;;;;;;0.50;0.50;;;;;;;;;;4992283;28;20202;-60
2021/12/24 11:55:52;;;;;;;0.50;0.50;;;;;;;;;;4993088;28;20217;-61
2021/12/24 11:58:27;;;;;;;0.50;0.50;;;;;;;;;;4992592;28;20233;-60
2021/12/24 12:00:55;;;;;;;0.50;0.50;;;;;;;;;;4991172;28;20642;-61
2021/12/24 12:03:32;;;;;;;0.50;0.50;;;;;;;;;;4991543;28;20182;-61
2021/12/24 12:05:58;;;;;;;0.50;0.50;;;;;;;;;;4991899;28;20178;-61
2021/12/24 12:08:28;;;;;;;0.40;0.40;;;;;;;;;;4991789;28;20214;-61
2021/12/24 12:11:04;;;;;;;0.50;0.50;;;;;;;;;;4991808;28;20650;-61
2021/12/24 12:13:47;;;;;;;0.40;0.40;;;;;;;;;;4989424;28;20189;-58
2021/12/24 12:16:15;;;;;;;0.47;0.47;;;;;;;;;;4988588;28;20182;-61
2021/12/24 12:18:47;;;;;;;0.40;0.40;;;;;;;;;;4991267;28;20603;-61
2021/12/24 12:21:26;;;;;;;0.50;0.50;;;;;;;;;;4991909;28;20550;-60
2021/12/24 12:26:43;;;;;;;0.50;0.50;;;;;;;;;;4990320;28;20186;-59
2021/12/24 12:29:16;;;;;;;0.40;0.40;;;;;;;;;;4988277;28;20210;-58
2021/12/24 12:31:42;;;;;;;0.40;0.40;;;;;;;;;;4991138;28;20178;-61
2021/12/24 12:34:40;;;;;;;0.40;0.40;;;;;;;;;;4991373;28;20178;-61
2021/12/24 12:37:23;;;;;;;0.40;0.40;;;;;;;;;;4985814;28;20219;-57
2021/12/24 12:39:51;;;;;;;0.40;0.40;;;;;;;;;;4981485;28;20178;-59
2021/12/24 12:42:18;;;;;;;0.40;0.40;;;;;;;;;;4987266;28;20179;-58
2021/12/24 12:44:46;;;;;;;0.30;0.30;;;;;;;;;;4990137;28;20280;-59
2021/12/24 12:47:14;;;;;;;0.50;0.50;;;;;;;;;;4989719;28;20268;-61
2021/12/24 12:49:40;;;;;;;0.40;0.40;;;;;;;;;;4990049;28;20265;-61
2021/12/24 12:52:16;;;;;;;0.50;0.50;;;;;;;;;;4991063;28;20664;-61
2021/12/24 12:54:42;;;;;;;0.40;0.40;;;;;;;;;;4990228;28;20181;-59
2021/12/24 12:57:14;;;;;;;0.40;0.40;;;;;;;;;;4991143;28;20205;-60
2021/12/24 12:59:41;;;;;;;0.40;0.40;;;;;;;;;;4990682;28;20786;-61
2021/12/24 13:02:07;;;;;;;0.40;0.40;;;;;;;;;;4980908;28;20591;-61
2021/12/24 13:04:33;;;;;;;0.40;0.40;;;;;;;;;;4987785;28;20209;-61
2021/12/24 13:06:59;;;;;;;0.40;0.40;;;;;;;;;;4997575;28;20252;-61
2021/12/24 13:09:29;;;;;;;0.40;0.40;;;;;;;;;;4988431;28;20312;-61
2021/12/24 13:11:55;;;;;;;0.40;0.40;;;;;;;;;;4989025;28;20248;-62
2021/12/24 13:14:23;;;;;;;0.40;0.40;;;;;;;;;;4989052;28;20213;-61
2021/12/24 13:17:17;;;;;;;0.40;0.40;;;;;;;;;;4990156;28;20198;-61
2021/12/24 13:22:31;;;;;;;0.40;0.40;;;;;;;;;;4988326;28;20193;-62
2021/12/24 13:24:59;;;;;;;0.40;0.40;;;;;;;;;;4986328;28;20171;-61
2021/12/24 13:27:27;;;;;;;0.40;0.40;;;;;;;;;;4989001;28;20201;-61
2021/12/24 13:30:06;;;;;;;0.40;0.40;;;;;;;;;;4988589;28;20215;-61
2021/12/24 13:32:36;;;;;;;0.40;0.40;;;;;;;;;;4988877;28;20210;-61
2021/12/24 13:35:02;;;;;;;0.40;0.40;;;;;;;;;;4982684;28;20654;-61
2021/12/24 13:37:34;;;;;;;0.40;0.40;;;;;;;;;;4987876;28;20194;-61
2021/12/24 13:40:00;;;;;;;0.45;0.45;;;;;;;;;;4989847;28;20284;-61
2021/12/24 13:42:26;;;;;;;0.40;0.40;;;;;;;;;;4984124;28;20185;-61
2021/12/24 13:44:59;;;;;;;0.40;0.40;;;;;;;;;;4984364;28;20178;-60
2021/12/24 13:47:39;;;;;;;0.50;0.50;;;;;;;;;;4985984;28;20802;-59
2021/12/24 13:55:27;;;;;;;0.50;0.50;;;;;;;;;;4991773;28;20594;-61
2021/12/24 13:57:52;;;;;;;0.40;0.40;;;;;;;;;;4990481;28;20581;-62
2021/12/24 14:00:19;;;;;;;0.40;0.40;;;;;;;;;;4991226;28;20179;-61
2021/12/24 14:02:55;;;;;;;0.40;0.40;;;;;;;;;;4993240;28;20799;-61
2021/12/24 14:05:21;;;;;;;0.40;0.40;;;;;;;;;;4993624;28;20186;-61
2021/12/24 14:10:31;;;;;;;0.40;0.40;;;;;;;;;;5018937;28;20679;-63
2021/12/24 14:13:04;;;;;;;0.40;0.40;;;;;;;;;;5030238;28;20208;-63
2021/12/24 14:15:31;;;;;;;0.40;0.40;;;;;;;;;;5036679;28;20525;-63
2021/12/24 14:18:22;;;;;;;0.40;0.40;;;;;;;;;;5034178;28;20180;-62
2021/12/24 14:21:44;;;;;;;0.40;0.40;;;;;;;;;;5019760;28;20189;-63
2021/12/24 14:23:33;;;;;;;0.45;0.45;;;;;;;;;;5013931;28;20197;-62
2021/12/24 14:26:00;;;;;;;0.40;0.40;;;;;;;;;;5023132;28;20189;-63
2021/12/24 14:28:26;;;;;;;0.40;0.40;;;;;;;;;;5013366;28;20473;-63
2021/12/24 14:31:03;;;;;;;0.40;0.40;;;;;;;;;;5011578;28;20184;-63
2021/12/24 14:33:33;;;;;;;0.50;0.50;;;;;;;;;;5013646;28;20470;-62
2021/12/24 14:36:01;;;;;;;0.40;0.40;;;;;;;;;;5008202;28;20170;-63
2021/12/24 14:38:27;;;;;;;0.40;0.40;;;;;;;;;;5013362;28;20708;-62
2021/12/24 14:40:59;;;;;;;0.50;0.50;;;;;;;;;;5015008;28;20181;-62
2021/12/24 14:43:26;;;;;;;0.40;0.40;;;;;;;;;;5006967;28;20479;-63
2021/12/24 14:45:52;;;;;;;0.40;0.40;;;;;;;;;;5017919;28;20184;-63
2021/12/24 14:48:29;;;;;;;0.40;0.40;;;;;;;;;;5009750;28;20630;-63
2021/12/24 14:50:58;;;;;;;0.40;0.40;;;;;;;;;;5010362;28;20575;-63
2021/12/24 14:53:38;;;;;;;0.40;0.40;;;;;;;;;;5013196;28;20201;-63
2021/12/24 14:56:05;;;;;;;0.40;0.40;;;;;;;;;;5008067;28;20687;-62
2021/12/24 14:58:34;;;;;;;0.40;0.40;;;;;;;;;;5003801;28;20629;-63
2021/12/24 15:01:02;;;;;;;0.40;0.40;;;;;;;;;;5008313;28;20185;-63
2021/12/24 15:03:30;;;;;;;0.50;0.50;;;;;;;;;;5004737;28;20186;-63
2021/12/24 15:05:56;;;;;;;0.50;0.50;;;;;;;;;;5012978;28;20727;-63
2021/12/24 15:08:24;;;;;;;0.40;0.40;;;;;;;;;;5012438;28;20210;-63
2021/12/24 15:11:07;;;;;;;0.50;0.50;;;;;;;;;;5011034;28;20633;-63
2021/12/24 15:13:34;;;;;;;0.50;0.50;;;;;;;;;;5011380;28;20181;-62
2021/12/24 15:16:04;;;;;;;0.40;0.40;;;;;;;;;;5011800;28;22019;-62
2021/12/24 15:18:30;;;;;;;0.40;0.40;;;;;;;;;;5008468;28;20271;-63
2021/12/24 15:20:56;;;;;;;0.40;0.40;;;;;;;;;;5011065;28;20197;-62
2021/12/24 15:23:22;;;;;;;0.40;0.40;;;;;;;;;;5007724;28;20181;-63
2021/12/24 15:25:48;;;;;;;0.50;0.50;;;;;;;;;;5004529;28;20727;-62
2021/12/24 15:28:19;;;;;;;0.40;0.40;;;;;;;;;;5011021;28;20450;-63
2021/12/24 15:30:45;;;;;;;0.40;0.40;;;;;;;;;;5007338;28;20177;-63
2021/12/24 15:33:11;;;;;;;0.40;0.40;;;;;;;;;;5011470;28;20178;-63
2021/12/24 15:35:38;;;;;;;0.40;0.40;;;;;;;;;;5012510;28;20178;-63
2021/12/24 15:38:05;;;;;;;0.40;0.40;;;;;;;;;;5009500;28;20174;-64
2021/12/24 15:40:31;;;;;;;0.40;0.40;;;;;;;;;;5017821;28;20181;-62
2021/12/24 15:43:01;;;;;;;0.50;0.50;;;;;;;;;;5012657;28;20186;-63
2021/12/24 15:45:27;;;;;;;0.50;0.50;;;;;;;;;;5010017;28;20197;-63
2021/12/24 15:47:53;;;;;;;0.50;0.50;;;;;;;;;;5011260;28;20205;-61
2021/12/24 15:50:19;;;;;;;0.40;0.40;;;;;;;;;;5009407;28;20543;-63
2021/12/24 15:52:45;;;;;;;0.45;0.45;;;;;;;;;;5010681;28;20413;-62
2021/12/24 15:55:11;;;;;;;0.40;0.40;;;;;;;;;;5011735;28;20231;-62
2021/12/24 15:57:37;;;;;;;0.40;0.40;;;;;;;;;;5009680;28;20471;-62
2021/12/24 16:00:04;;;;;;;0.40;0.40;;;;;;;;;;5010719;28;20987;-61
2021/12/24 16:02:30;;;;;;;0.40;0.40;;;;;;;;;;5010526;28;20420;-62
2021/12/24 16:04:56;;;;;;;0.50;0.50;;;;;;;;;;5012226;28;20236;-62
2021/12/24 16:07:22;;;;;;;0.40;0.40;;;;;;;;;;5010326;28;20416;-62
2021/12/24 16:09:48;;;;;;;0.40;0.40;;;;;;;;;;5011145;28;20455;-62
2021/12/24 16:12:14;;;;;;;0.50;0.50;;;;;;;;;;5011592;28;20465;-62
2021/12/24 16:14:41;;;;;;;0.40;0.40;;;;;;;;;;5010650;28;20227;-62
2021/12/24 16:17:07;;;;;;;0.50;0.50;;;;;;;;;;5009576;28;20180;-63
2021/12/24 16:19:33;;;;;;;0.50;0.50;;;;;;;;;;5011193;28;20692;-63
2021/12/24 16:21:59;;;;;;;0.40;0.40;;;;;;;;;;5011618;28;20188;-62
2021/12/24 16:24:25;;;;;;;0.47;0.47;;;;;;;;;;5010996;28;20420;-62
2021/12/24 16:26:51;;;;;;;0.50;0.50;;;;;;;;;;5009773;28;20190;-60
2021/12/24 16:29:18;;;;;;;0.40;0.40;;;;;;;;;;5009063;28;20471;-62
2021/12/24 16:31:48;;;;;;;0.40;0.40;;;;;;;;;;5010267;28;20184;-64
2021/12/24 16:34:14;;;;;;;0.40;0.40;;;;;;;;;;5011443;28;20166;-63
2021/12/24 16:36:40;;;;;;;0.43;0.43;;;;;;;;;;5012242;28;20173;-63
2021/12/24 16:39:06;;;;;;;0.50;0.50;;;;;;;;;;5010767;28;20204;-63
2021/12/24 16:41:32;;;;;;;0.40;0.40;;;;;;;;;;5011152;28;20425;-63